Time,TemperatureF,DewpointF,PressureIn,WindDirection,WindDirectionDegrees,WindSpeedMPH,WindSpeedGustMPH,Humidity,HourlyPrecipIn,Conditions,Clouds,dailyrainin,SoftwareType,DateUTC
2013-07-18 00:00:00,78.2,75.3,30.13,South,190,0.0,0.0,91,0.00,,,0.00,WUHU216DAVISVP2,2013-07-18 04:00:00,
2013-07-18 00:01:00,78.2,75.3,30.13,South,190,0.0,0.0,91,0.00,,,0.00,WUHU216DAVISVP2,2013-07-18 04:01:00,
2013-07-18 00:06:00,78.1,75.2,30.13,South,190,0.0,0.0,91,0.00,,,0.00,WUHU216DAVISVP2,2013-07-18 04:06:00,
2013-07-18 00:11:00,78.1,75.2,30.13,South,190,0.0,0.0,91,0.00,,,0.00,WUHU216DAVISVP2,2013-07-18 04:11:00,
2013-07-18 00:16:00,78.1,75.2,30.13,South,190,0.0,0.0,91,0.00,,,0.00,WUHU216DAVISVP2,2013-07-18 04:16:00,
2013-07-18 00:21:00,78.0,75.1,30.13,South,190,0.0,0.0,91,0.00,,,0.00,WUHU216DAVISVP2,2013-07-18 04:21:00,
2013-07-18 00:26:00,77.9,75.0,30.13,South,190,0.0,0.0,91,0.00,,,0.00,WUHU216DAVISVP2,2013-07-18 04:26:00,
2013-07-18 00:31:00,77.9,75.0,30.13,South,190,0.0,0.0,91,0.00,,,0.00,WUHU216DAVISVP2,2013-07-18 04:31:00,
2013-07-18 00:36:00,77.8,74.9,30.14,South,190,0.0,0.0,91,0.00,,,0.00,WUHU216DAVISVP2,2013-07-18 04:36:00,
2013-07-18 00:41:00,77.7,74.8,30.14,South,190,0.0,0.0,91,0.00,,,0.00,WUHU216DAVISVP2,2013-07-18 04:41:00,
2013-07-18 00:46:00,77.8,74.9,30.13,South,190,0.0,0.0,91,0.00,,,0.00,WUHU216DAVISVP2,2013-07-18 04:46:00,
2013-07-18 00:51:00,77.9,75.0,30.13,South,190,0.0,0.0,91,0.00,,,0.00,WUHU216DAVISVP2,2013-07-18 04:51:00,
2013-07-18 00:56:00,78.1,75.2,30.13,South,190,0.0,0.0,91,0.00,,,0.00,WUHU216DAVISVP2,2013-07-18 04:56:00,
2013-07-18 01:01:00,78.1,75.2,30.13,South,190,0.0,0.0,91,0.00,,,0.00,WUHU216DAVISVP2,2013-07-18 05:01:00,
2013-07-18 01:06:00,78.1,75.2,30.13,South,190,0.0,0.0,91,0.00,,,0.00,WUHU216DAVISVP2,2013-07-18 05:06:00,
2013-07-18 01:11:00,78.1,75.2,30.13,South,190,0.0,1.0,91,0.00,,,0.00,WUHU216DAVISVP2,2013-07-18 05:11:00,
2013-07-18 01:16:00,78.0,75.1,30.13,South,190,0.0,1.0,91,0.00,,,0.00,WUHU216DAVISVP2,2013-07-18 05:16:00,
2013-07-18 01:21:00,77.9,75.0,30.13,South,190,0.0,0.0,91,0.00,,,0.00,WUHU216DAVISVP2,2013-07-18 05:21:00,
2013-07-18 01:26:00,77.8,74.9,30.13,South,190,0.0,0.0,91,0.00,,,0.00,WUHU216DAVISVP2,2013-07-18 05:26:00,
2013-07-18 01:31:00,77.7,74.8,30.13,South,190,0.0,0.0,91,0.00,,,0.00,WUHU216DAVISVP2,2013-07-18 05:31:00,
2013-07-18 01:36:00,77.6,74.7,30.13,South,190,0.0,0.0,91,0.00,,,0.00,WUHU216DAVISVP2,2013-07-18 05:36:00,
2013-07-18 01:41:00,77.5,74.7,30.13,South,190,0.0,0.0,91,0.00,,,0.00,WUHU216DAVISVP2,2013-07-18 05:41:00,
2013-07-18 01:46:00,77.4,74.6,30.13,South,190,0.0,0.0,91,0.00,,,0.00,WUHU216DAVISVP2,2013-07-18 05:46:00,
2013-07-18 01:51:00,77.3,74.5,30.13,South,190,0.0,0.0,91,0.00,,,0.00,WUHU216DAVISVP2,2013-07-18 05:51:00,
2013-07-18 01:56:00,77.1,74.6,30.12,South,190,0.0,0.0,92,0.00,,,0.00,WUHU216DAVISVP2,2013-07-18 05:56:00,
2013-07-18 02:01:00,77.0,74.5,30.12,South,190,0.0,0.0,92,0.00,,,0.00,WUHU216DAVISVP2,2013-07-18 06:01:00,
2013-07-18 02:06:00,76.9,74.4,30.12,South,190,0.0,0.0,92,0.00,,,0.00,WUHU216DAVISVP2,2013-07-18 06:06:00,
2013-07-18 02:11:00,76.9,74.4,30.12,South,190,0.0,0.0,92,0.00,,,0.00,WUHU216DAVISVP2,2013-07-18 06:11:00,
2013-07-18 02:16:00,76.9,74.4,30.12,South,190,0.0,0.0,92,0.00,,,0.00,WUHU216DAVISVP2,2013-07-18 06:16:00,
2013-07-18 02:21:00,76.8,74.3,30.11,South,190,0.0,0.0,92,0.00,,,0.00,WUHU216DAVISVP2,2013-07-18 06:21:00,
2013-07-18 02:26:00,76.6,74.1,30.11,South,190,0.0,0.0,92,0.00,,,0.00,WUHU216DAVISVP2,2013-07-18 06:26:00,
2013-07-18 02:31:00,76.6,74.4,30.11,South,190,0.0,0.0,93,0.00,,,0.00,WUHU216DAVISVP2,2013-07-18 06:31:00,
2013-07-18 02:36:00,76.5,74.3,30.11,South,190,0.0,0.0,93,0.00,,,0.00,WUHU216DAVISVP2,2013-07-18 06:36:00,
2013-07-18 02:41:00,76.3,74.1,30.11,South,190,0.0,0.0,93,0.00,,,0.00,WUHU216DAVISVP2,2013-07-18 06:41:00,
2013-07-18 02:46:00,76.2,74.0,30.11,South,190,0.0,0.0,93,0.00,,,0.00,WUHU216DAVISVP2,2013-07-18 06:46:00,
2013-07-18 02:51:00,76.2,74.0,30.11,South,190,0.0,0.0,93,0.00,,,0.00,WUHU216DAVISVP2,2013-07-18 06:51:00,
2013-07-18 02:56:00,76.2,74.3,30.11,South,190,0.0,0.0,94,0.00,,,0.00,WUHU216DAVISVP2,2013-07-18 06:56:00,
2013-07-18 03:01:00,76.1,74.2,30.10,South,190,0.0,0.0,94,0.00,,,0.00,WUHU216DAVISVP2,2013-07-18 07:01:00,
2013-07-18 03:06:00,76.0,74.1,30.10,South,190,0.0,0.0,94,0.00,,,0.00,WUHU216DAVISVP2,2013-07-18 07:06:00,
2013-07-18 03:11:00,75.9,74.0,30.10,South,190,0.0,0.0,94,0.00,,,0.00,WUHU216DAVISVP2,2013-07-18 07:11:00,
2013-07-18 03:16:00,75.8,73.9,30.10,South,190,0.0,0.0,94,0.00,,,0.00,WUHU216DAVISVP2,2013-07-18 07:16:00,
2013-07-18 03:21:00,75.7,73.8,30.10,South,190,0.0,0.0,94,0.00,,,0.00,WUHU216DAVISVP2,2013-07-18 07:21:00,
2013-07-18 03:26:00,75.7,73.8,30.10,South,190,0.0,0.0,94,0.00,,,0.00,WUHU216DAVISVP2,2013-07-18 07:26:00,
2013-07-18 03:31:00,75.6,73.7,30.10,South,190,0.0,0.0,94,0.00,,,0.00,WUHU216DAVISVP2,2013-07-18 07:31:00,
2013-07-18 03:36:00,75.6,73.7,30.10,South,190,0.0,0.0,94,0.00,,,0.00,WUHU216DAVISVP2,2013-07-18 07:36:00,
2013-07-18 03:41:00,75.6,74.0,30.10,South,190,0.0,0.0,95,0.00,,,0.00,WUHU216DAVISVP2,2013-07-18 07:41:00,
2013-07-18 03:46:00,75.6,74.0,30.09,South,190,0.0,0.0,95,0.00,,,0.00,WUHU216DAVISVP2,2013-07-18 07:46:00,
2013-07-18 03:51:00,75.6,73.7,30.09,South,190,0.0,0.0,94,0.00,,,0.00,WUHU216DAVISVP2,2013-07-18 07:51:00,
2013-07-18 03:56:00,75.5,73.9,30.10,South,190,0.0,0.0,95,0.00,,,0.00,WUHU216DAVISVP2,2013-07-18 07:56:00,
2013-07-18 04:01:00,75.4,73.8,30.10,South,190,0.0,0.0,95,0.00,,,0.00,WUHU216DAVISVP2,2013-07-18 08:01:00,
2013-07-18 04:06:00,75.3,73.7,30.10,South,190,0.0,0.0,95,0.00,,,0.00,WUHU216DAVISVP2,2013-07-18 08:06:00,
2013-07-18 04:11:00,75.3,73.7,30.10,South,190,0.0,0.0,95,0.00,,,0.00,WUHU216DAVISVP2,2013-07-18 08:11:00,
2013-07-18 04:16:00,75.2,73.6,30.10,South,190,0.0,0.0,95,0.00,,,0.00,WUHU216DAVISVP2,2013-07-18 08:16:00,
2013-07-18 04:21:00,75.1,73.9,30.10,South,190,0.0,0.0,96,0.00,,,0.00,WUHU216DAVISVP2,2013-07-18 08:21:00,
2013-07-18 04:26:00,75.0,73.8,30.10,South,190,0.0,0.0,96,0.00,,,0.00,WUHU216DAVISVP2,2013-07-18 08:26:00,
2013-07-18 04:31:00,74.9,73.3,30.10,South,190,0.0,0.0,95,0.00,,,0.00,WUHU216DAVISVP2,2013-07-18 08:31:00,
2013-07-18 04:36:00,74.8,73.2,30.10,South,190,0.0,0.0,95,0.00,,,0.00,WUHU216DAVISVP2,2013-07-18 08:36:00,
2013-07-18 04:41:00,74.8,73.2,30.10,South,190,0.0,0.0,95,0.00,,,0.00,WUHU216DAVISVP2,2013-07-18 08:41:00,
2013-07-18 04:46:00,74.8,73.6,30.11,South,190,0.0,0.0,96,0.00,,,0.00,WUHU216DAVISVP2,2013-07-18 08:46:00,
2013-07-18 04:51:00,74.7,73.5,30.11,South,190,0.0,0.0,96,0.00,,,0.00,WUHU216DAVISVP2,2013-07-18 08:51:00,
2013-07-18 04:56:00,74.7,73.5,30.11,South,190,0.0,0.0,96,0.00,,,0.00,WUHU216DAVISVP2,2013-07-18 08:56:00,
2013-07-18 05:01:00,74.8,73.6,30.11,South,190,0.0,0.0,96,0.00,,,0.00,WUHU216DAVISVP2,2013-07-18 09:01:00,
2013-07-18 05:06:00,74.7,73.5,30.11,South,190,0.0,0.0,96,0.00,,,0.00,WUHU216DAVISVP2,2013-07-18 09:06:00,
2013-07-18 05:11:00,74.7,73.5,30.11,South,190,0.0,0.0,96,0.00,,,0.00,WUHU216DAVISVP2,2013-07-18 09:11:00,
2013-07-18 05:16:00,74.6,73.4,30.11,South,190,0.0,0.0,96,0.00,,,0.00,WUHU216DAVISVP2,2013-07-18 09:16:00,
2013-07-18 05:21:00,74.6,73.4,30.11,South,190,0.0,0.0,96,0.00,,,0.00,WUHU216DAVISVP2,2013-07-18 09:21:00,
2013-07-18 05:26:00,74.6,73.4,30.10,South,190,0.0,0.0,96,0.00,,,0.00,WUHU216DAVISVP2,2013-07-18 09:26:00,
2013-07-18 05:31:00,74.6,73.4,30.11,South,190,0.0,0.0,96,0.00,,,0.00,WUHU216DAVISVP2,2013-07-18 09:31:00,
2013-07-18 05:36:00,74.7,73.5,30.11,South,190,0.0,0.0,96,0.00,,,0.00,WUHU216DAVISVP2,2013-07-18 09:36:00,
2013-07-18 05:41:00,74.7,73.5,30.10,South,190,0.0,0.0,96,0.00,,,0.00,WUHU216DAVISVP2,2013-07-18 09:41:00,
2013-07-18 05:46:00,74.6,73.4,30.10,South,190,0.0,0.0,96,0.00,,,0.00,WUHU216DAVISVP2,2013-07-18 09:46:00,
2013-07-18 05:51:00,74.5,73.3,30.11,South,190,0.0,0.0,96,0.00,,,0.00,WUHU216DAVISVP2,2013-07-18 09:51:00,
2013-07-18 05:56:00,74.4,73.2,30.11,South,190,0.0,0.0,96,0.00,,,0.00,WUHU216DAVISVP2,2013-07-18 09:56:00,
2013-07-18 06:01:00,74.4,73.2,30.11,South,190,0.0,0.0,96,0.00,,,0.00,WUHU216DAVISVP2,2013-07-18 10:01:00,
2013-07-18 06:06:00,74.3,73.1,30.11,South,190,0.0,0.0,96,0.00,,,0.00,WUHU216DAVISVP2,2013-07-18 10:06:00,
2013-07-18 06:11:00,74.2,73.0,30.11,South,190,0.0,0.0,96,0.00,,,0.00,WUHU216DAVISVP2,2013-07-18 10:11:00,
2013-07-18 06:16:00,74.1,72.9,30.10,South,190,0.0,0.0,96,0.00,,,0.00,WUHU216DAVISVP2,2013-07-18 10:16:00,
2013-07-18 06:21:00,74.1,72.9,30.11,South,190,0.0,0.0,96,0.00,,,0.00,WUHU216DAVISVP2,2013-07-18 10:21:00,
2013-07-18 06:26:00,74.1,72.9,30.11,South,190,0.0,0.0,96,0.00,,,0.00,WUHU216DAVISVP2,2013-07-18 10:26:00,
2013-07-18 06:31:00,74.0,73.1,30.11,South,190,0.0,0.0,97,0.00,,,0.00,WUHU216DAVISVP2,2013-07-18 10:31:00,
2013-07-18 06:36:00,74.0,73.1,30.11,South,190,0.0,0.0,97,0.00,,,0.00,WUHU216DAVISVP2,2013-07-18 10:36:00,
2013-07-18 06:41:00,73.9,73.0,30.12,South,190,0.0,0.0,97,0.00,,,0.00,WUHU216DAVISVP2,2013-07-18 10:41:00,
2013-07-18 06:46:00,73.9,73.0,30.12,South,190,0.0,0.0,97,0.00,,,0.00,WUHU216DAVISVP2,2013-07-18 10:46:00,
2013-07-18 06:51:00,73.9,73.0,30.12,South,190,0.0,0.0,97,0.00,,,0.00,WUHU216DAVISVP2,2013-07-18 10:51:00,
2013-07-18 06:56:00,74.0,73.1,30.11,South,190,0.0,0.0,97,0.00,,,0.00,WUHU216DAVISVP2,2013-07-18 10:56:00,
2013-07-18 07:01:00,74.1,73.2,30.12,South,190,0.0,0.0,97,0.00,,,0.00,WUHU216DAVISVP2,2013-07-18 11:01:00,
2013-07-18 07:06:00,74.2,73.3,30.12,South,190,0.0,0.0,97,0.00,,,0.00,WUHU216DAVISVP2,2013-07-18 11:06:00,
2013-07-18 07:11:00,74.2,73.3,30.12,South,190,0.0,0.0,97,0.00,,,0.00,WUHU216DAVISVP2,2013-07-18 11:11:00,
2013-07-18 07:16:00,74.3,73.7,30.12,South,190,0.0,0.0,98,0.00,,,0.00,WUHU216DAVISVP2,2013-07-18 11:16:00,
2013-07-18 07:22:00,74.5,73.9,30.12,South,190,0.0,0.0,98,0.00,,,0.00,WUHU216DAVISVP2,2013-07-18 11:22:00,
2013-07-18 07:27:00,74.7,74.1,30.12,South,190,0.0,0.0,98,0.00,,,0.00,WUHU216DAVISVP2,2013-07-18 11:27:00,
2013-07-18 07:32:00,74.9,74.3,30.13,South,190,0.0,0.0,98,0.00,,,0.00,WUHU216DAVISVP2,2013-07-18 11:32:00,
2013-07-18 07:37:00,75.1,74.5,30.13,South,190,0.0,0.0,98,0.00,,,0.00,WUHU216DAVISVP2,2013-07-18 11:37:00,
2013-07-18 07:42:00,75.4,74.8,30.13,South,190,0.0,0.0,98,0.00,,,0.00,WUHU216DAVISVP2,2013-07-18 11:42:00,
2013-07-18 07:47:00,75.8,75.5,30.13,South,190,0.0,0.0,99,0.00,,,0.00,WUHU216DAVISVP2,2013-07-18 11:47:00,
2013-07-18 07:52:00,76.1,75.8,30.13,South,190,0.0,1.0,99,0.00,,,0.00,WUHU216DAVISVP2,2013-07-18 11:52:00,
2013-07-18 07:57:00,76.4,76.1,30.13,South,190,0.0,1.0,99,0.00,,,0.00,WUHU216DAVISVP2,2013-07-18 11:57:00,
2013-07-18 08:02:00,76.6,76.0,30.13,South,190,0.0,0.0,98,0.00,,,0.00,WUHU216DAVISVP2,2013-07-18 12:02:00,
2013-07-18 08:07:00,76.8,76.2,30.13,SSW,192,0.0,2.0,98,0.00,,,0.00,WUHU216DAVISVP2,2013-07-18 12:07:00,
2013-07-18 08:12:00,77.0,76.1,30.13,SSW,192,0.0,2.0,97,0.00,,,0.00,WUHU216DAVISVP2,2013-07-18 12:12:00,
2013-07-18 08:17:00,77.2,76.3,30.13,SSW,192,0.0,0.0,97,0.00,,,0.00,WUHU216DAVISVP2,2013-07-18 12:17:00,
2013-07-18 08:22:00,77.4,76.5,30.13,SSW,192,0.0,1.0,97,0.00,,,0.00,WUHU216DAVISVP2,2013-07-18 12:22:00,
2013-07-18 08:27:00,77.6,76.3,30.13,SSW,192,0.0,1.0,96,0.00,,,0.00,WUHU216DAVISVP2,2013-07-18 12:27:00,
2013-07-18 08:32:00,77.9,76.6,30.13,SSW,192,0.0,0.0,96,0.00,,,0.00,WUHU216DAVISVP2,2013-07-18 12:32:00,
2013-07-18 08:37:00,78.1,76.5,30.13,SSW,192,0.0,0.0,95,0.00,,,0.00,WUHU216DAVISVP2,2013-07-18 12:37:00,
2013-07-18 08:42:00,78.3,76.4,30.13,SSW,192,0.0,0.0,94,0.00,,,0.00,WUHU216DAVISVP2,2013-07-18 12:42:00,
2013-07-18 08:47:00,78.5,76.6,30.13,SSW,192,0.0,0.0,94,0.00,,,0.00,WUHU216DAVISVP2,2013-07-18 12:47:00,
2013-07-18 08:52:00,78.8,76.6,30.13,SSW,192,0.0,1.0,93,0.00,,,0.00,WUHU216DAVISVP2,2013-07-18 12:52:00,
2013-07-18 08:57:00,79.0,76.5,30.13,SSW,192,0.0,1.0,92,0.00,,,0.00,WUHU216DAVISVP2,2013-07-18 12:57:00,
2013-07-18 09:02:00,79.3,76.8,30.13,SSW,192,0.0,1.0,92,0.00,,,0.00,WUHU216DAVISVP2,2013-07-18 13:02:00,
2013-07-18 09:07:00,79.6,77.1,30.13,SSW,192,0.0,1.0,92,0.00,,,0.00,WUHU216DAVISVP2,2013-07-18 13:07:00,
2013-07-18 09:12:00,79.7,76.8,30.13,SSW,192,0.0,1.0,91,0.00,,,0.00,WUHU216DAVISVP2,2013-07-18 13:12:00,
2013-07-18 09:17:00,80.0,77.1,30.13,SSW,192,0.0,1.0,91,0.00,,,0.00,WUHU216DAVISVP2,2013-07-18 13:17:00,
2013-07-18 09:22:00,80.2,77.0,30.13,South,191,0.0,1.0,90,0.00,,,0.00,WUHU216DAVISVP2,2013-07-18 13:22:00,
2013-07-18 09:27:00,80.4,76.9,30.13,East,93,0.0,1.0,89,0.00,,,0.00,WUHU216DAVISVP2,2013-07-18 13:27:00,
2013-07-18 09:32:00,80.5,76.6,30.13,East,96,0.0,1.0,88,0.00,,,0.00,WUHU216DAVISVP2,2013-07-18 13:32:00,
2013-07-18 09:37:00,80.7,76.8,30.13,South,191,0.0,1.0,88,0.00,,,0.00,WUHU216DAVISVP2,2013-07-18 13:37:00,
2013-07-18 09:42:00,80.8,76.9,30.14,South,191,0.0,1.0,88,0.00,,,0.00,WUHU216DAVISVP2,2013-07-18 13:42:00,
2013-07-18 09:47:00,81.0,77.1,30.14,South,191,0.0,1.0,88,0.00,,,0.00,WUHU216DAVISVP2,2013-07-18 13:47:00,
2013-07-18 09:52:00,81.2,77.0,30.14,South,191,0.0,1.0,87,0.00,,,0.00,WUHU216DAVISVP2,2013-07-18 13:52:00,
2013-07-18 09:57:00,81.3,77.1,30.14,East,90,0.0,1.0,87,0.00,,,0.00,WUHU216DAVISVP2,2013-07-18 13:57:00,
2013-07-18 10:02:00,81.6,77.4,30.14,West,268,0.0,1.0,87,0.00,,,0.00,WUHU216DAVISVP2,2013-07-18 14:02:00,
2013-07-18 10:07:00,81.8,77.2,30.14,SE,140,0.0,1.0,86,0.00,,,0.00,WUHU216DAVISVP2,2013-07-18 14:07:00,
2013-07-18 10:12:00,81.8,76.9,30.14,SSE,158,0.0,1.0,85,0.00,,,0.00,WUHU216DAVISVP2,2013-07-18 14:12:00,
2013-07-18 10:17:00,82.0,77.4,30.14,SSE,158,0.0,1.0,86,0.00,,,0.00,WUHU216DAVISVP2,2013-07-18 14:17:00,
2013-07-18 10:22:00,82.1,77.2,30.14,ENE,60,0.0,1.0,85,0.00,,,0.00,WUHU216DAVISVP2,2013-07-18 14:22:00,
2013-07-18 10:27:00,82.1,76.9,30.14,ENE,60,0.0,1.0,84,0.00,,,0.00,WUHU216DAVISVP2,2013-07-18 14:27:00,
2013-07-18 10:32:00,82.2,77.3,30.14,ENE,60,0.0,1.0,85,0.00,,,0.00,WUHU216DAVISVP2,2013-07-18 14:32:00,
2013-07-18 10:37:00,82.5,77.6,30.14,ENE,69,0.0,1.0,85,0.00,,,0.00,WUHU216DAVISVP2,2013-07-18 14:37:00,
2013-07-18 10:42:00,82.8,77.2,30.14,SE,130,0.0,1.0,83,0.00,,,0.00,WUHU216DAVISVP2,2013-07-18 14:42:00,
2013-07-18 10:47:00,82.8,77.5,30.14,SE,134,0.0,1.0,84,0.00,,,0.00,WUHU216DAVISVP2,2013-07-18 14:47:00,
2013-07-18 10:52:00,82.8,77.5,30.14,SE,130,0.0,1.0,84,0.00,,,0.00,WUHU216DAVISVP2,2013-07-18 14:52:00,
2013-07-18 10:57:00,82.8,77.5,30.14,ESE,121,0.0,1.0,84,0.00,,,0.00,WUHU216DAVISVP2,2013-07-18 14:57:00,
2013-07-18 11:02:00,83.1,77.8,30.14,East,80,1.0,1.0,84,0.00,,,0.00,WUHU216DAVISVP2,2013-07-18 15:02:00,
2013-07-18 11:07:00,83.1,77.5,30.14,East,101,0.0,3.0,83,0.00,,,0.00,WUHU216DAVISVP2,2013-07-18 15:07:00,
2013-07-18 11:12:00,83.2,77.6,30.14,North,5,1.0,4.0,83,0.00,,,0.00,WUHU216DAVISVP2,2013-07-18 15:12:00,
2013-07-18 11:17:00,83.4,77.8,30.14,West,264,0.0,4.0,83,0.00,,,0.00,WUHU216DAVISVP2,2013-07-18 15:17:00,
2013-07-18 11:22:00,83.5,77.9,30.14,NW,324,0.0,4.0,83,0.00,,,0.00,WUHU216DAVISVP2,2013-07-18 15:22:00,
2013-07-18 11:27:00,83.9,77.9,30.14,ENE,59,0.0,1.0,82,0.00,,,0.00,WUHU216DAVISVP2,2013-07-18 15:27:00,
2013-07-18 11:32:00,84.1,77.8,30.14,WSW,250,0.0,4.0,81,0.00,,,0.00,WUHU216DAVISVP2,2013-07-18 15:32:00,
2013-07-18 11:37:00,84.3,77.9,30.14,SW,232,0.0,4.0,81,0.00,,,0.00,WUHU216DAVISVP2,2013-07-18 15:37:00,
2013-07-18 11:42:00,84.3,77.9,30.14,WSW,241,0.0,3.0,81,0.00,,,0.00,WUHU216DAVISVP2,2013-07-18 15:42:00,
2013-07-18 11:47:00,84.4,78.0,30.14,SE,142,0.0,3.0,81,0.00,,,0.00,WUHU216DAVISVP2,2013-07-18 15:47:00,
2013-07-18 11:52:00,84.5,78.5,30.14,SE,140,0.0,1.0,82,0.00,,,0.00,WUHU216DAVISVP2,2013-07-18 15:52:00,
2013-07-18 11:57:00,84.6,78.2,30.14,West,262,0.0,1.0,81,0.00,,,0.00,WUHU216DAVISVP2,2013-07-18 15:57:00,
2013-07-18 12:02:00,84.9,78.2,30.13,NNW,337,0.0,5.0,80,0.00,,,0.00,WUHU216DAVISVP2,2013-07-18 16:02:00,
2013-07-18 12:07:00,85.1,78.0,30.14,WSW,240,3.0,5.0,79,0.00,,,0.00,WUHU216DAVISVP2,2013-07-18 16:07:00,
2013-07-18 12:12:00,85.4,77.9,30.14,East,97,0.0,3.0,78,0.00,,,0.00,WUHU216DAVISVP2,2013-07-18 16:12:00,
2013-07-18 12:17:00,85.4,77.9,30.14,ESE,117,0.0,3.0,78,0.00,,,0.00,WUHU216DAVISVP2,2013-07-18 16:17:00,
2013-07-18 12:22:00,85.2,78.1,30.14,NE,45,0.0,4.0,79,0.00,,,0.00,WUHU216DAVISVP2,2013-07-18 16:22:00,
2013-07-18 12:27:00,85.3,78.2,30.14,WSW,242,0.0,4.0,79,0.00,,,0.00,WUHU216DAVISVP2,2013-07-18 16:27:00,
2013-07-18 12:32:00,85.5,77.6,30.14,East,101,3.0,3.0,77,0.00,,,0.00,WUHU216DAVISVP2,2013-07-18 16:32:00,
2013-07-18 12:37:00,85.7,78.2,30.14,South,186,0.0,3.0,78,0.00,,,0.00,WUHU216DAVISVP2,2013-07-18 16:37:00,
2013-07-18 12:42:00,86.1,78.6,30.14,West,273,1.0,3.0,78,0.00,,,0.00,WUHU216DAVISVP2,2013-07-18 16:42:00,
2013-07-18 12:47:00,86.5,77.8,30.14,West,265,0.0,1.0,75,0.00,,,0.00,WUHU216DAVISVP2,2013-07-18 16:47:00,
2013-07-18 12:52:00,86.6,78.3,30.14,NW,307,0.0,1.0,76,0.00,,,0.00,WUHU216DAVISVP2,2013-07-18 16:52:00,
2013-07-18 12:57:00,86.8,78.5,30.14,WSW,249,0.0,1.0,76,0.00,,,0.00,WUHU216DAVISVP2,2013-07-18 16:57:00,
2013-07-18 13:02:00,87.3,78.2,30.14,NW,323,0.0,1.0,74,0.00,,,0.00,WUHU216DAVISVP2,2013-07-18 17:02:00,
2013-07-18 13:07:00,87.6,78.5,30.14,NW,305,0.0,1.0,74,0.00,,,0.00,WUHU216DAVISVP2,2013-07-18 17:07:00,
2013-07-18 13:12:00,87.8,78.3,30.13,WNW,284,0.0,1.0,73,0.00,,,0.00,WUHU216DAVISVP2,2013-07-18 17:12:00,
2013-07-18 13:17:00,87.4,78.3,30.13,NNW,345,0.0,3.0,74,0.00,,,0.00,WUHU216DAVISVP2,2013-07-18 17:17:00,
2013-07-18 13:22:00,86.6,77.1,30.13,SSW,192,0.0,3.0,73,0.00,,,0.00,WUHU216DAVISVP2,2013-07-18 17:22:00,
2013-07-18 13:27:00,85.6,77.0,30.13,SE,127,0.0,3.0,75,0.00,,,0.00,WUHU216DAVISVP2,2013-07-18 17:27:00,
2013-07-18 13:32:00,85.3,77.4,30.13,South,177,0.0,1.0,77,0.00,,,0.00,WUHU216DAVISVP2,2013-07-18 17:32:00,
2013-07-18 13:37:00,85.1,77.6,30.13,SSW,211,0.0,1.0,78,0.00,,,0.00,WUHU216DAVISVP2,2013-07-18 17:37:00,
2013-07-18 13:42:00,85.1,78.0,30.13,SSW,212,0.0,1.0,79,0.00,,,0.00,WUHU216DAVISVP2,2013-07-18 17:42:00,
2013-07-18 13:47:00,85.3,77.8,30.13,SW,224,0.0,1.0,78,0.00,,,0.00,WUHU216DAVISVP2,2013-07-18 17:47:00,
2013-07-18 13:52:00,85.7,78.6,30.13,SW,225,0.0,1.0,79,0.00,,,0.00,WUHU216DAVISVP2,2013-07-18 17:52:00,
2013-07-18 13:57:00,86.0,78.1,30.12,South,169,0.0,4.0,77,0.00,,,0.00,WUHU216DAVISVP2,2013-07-18 17:57:00,
2013-07-18 14:02:00,86.3,78.4,30.12,NNW,348,0.0,4.0,77,0.00,,,0.00,WUHU216DAVISVP2,2013-07-18 18:02:00,
2013-07-18 14:07:00,86.5,79.0,30.12,SSE,162,1.0,1.0,78,0.00,,,0.00,WUHU216DAVISVP2,2013-07-18 18:07:00,
2013-07-18 14:12:00,86.7,78.0,30.12,SSW,199,0.0,3.0,75,0.00,,,0.00,WUHU216DAVISVP2,2013-07-18 18:12:00,
2013-07-18 14:17:00,86.3,78.4,30.12,SSE,161,0.0,3.0,77,0.00,,,0.00,WUHU216DAVISVP2,2013-07-18 18:17:00,
2013-07-18 14:22:00,86.1,78.2,30.12,South,190,0.0,3.0,77,0.00,,,0.00,WUHU216DAVISVP2,2013-07-18 18:22:00,
2013-07-18 14:27:00,85.9,78.0,30.12,ESE,118,0.0,3.0,77,0.00,,,0.00,WUHU216DAVISVP2,2013-07-18 18:27:00,
2013-07-18 14:32:00,85.5,78.0,30.12,NW,305,0.0,3.0,78,0.00,,,0.00,WUHU216DAVISVP2,2013-07-18 18:32:00,
2013-07-18 14:37:00,85.7,78.2,30.12,NNW,331,0.0,2.0,78,0.00,,,0.00,WUHU216DAVISVP2,2013-07-18 18:37:00,
2013-07-18 14:42:00,86.0,78.1,30.12,South,190,0.0,2.0,77,0.00,,,0.00,WUHU216DAVISVP2,2013-07-18 18:42:00,
2013-07-18 14:47:00,85.9,78.4,30.12,East,94,0.0,5.0,78,0.00,,,0.00,WUHU216DAVISVP2,2013-07-18 18:47:00,
2013-07-18 14:52:00,85.3,77.8,30.12,NW,313,2.0,5.0,78,0.00,,,0.00,WUHU216DAVISVP2,2013-07-18 18:52:00,
2013-07-18 14:57:00,85.0,77.9,30.11,NNW,340,0.0,4.0,79,0.00,,,0.00,WUHU216DAVISVP2,2013-07-18 18:57:00,
2013-07-18 15:02:00,84.8,77.7,30.11,East,92,0.0,4.0,79,0.00,,,0.00,WUHU216DAVISVP2,2013-07-18 19:02:00,
2013-07-18 15:07:00,84.7,77.6,30.11,SSE,158,0.0,4.0,79,0.00,,,0.00,WUHU216DAVISVP2,2013-07-18 19:07:00,
2013-07-18 15:12:00,84.7,78.0,30.11,WSW,248,0.0,1.0,80,0.00,,,0.00,WUHU216DAVISVP2,2013-07-18 19:12:00,
2013-07-18 15:17:00,84.8,78.1,30.11,NW,311,0.0,1.0,80,0.00,,,0.00,WUHU216DAVISVP2,2013-07-18 19:17:00,
2013-07-18 15:22:00,84.6,77.9,30.11,NNW,348,0.0,1.0,80,0.00,,,0.00,WUHU216DAVISVP2,2013-07-18 19:22:00,
2013-07-18 15:27:00,84.5,77.8,30.10,ESE,105,0.0,1.0,80,0.00,,,0.00,WUHU216DAVISVP2,2013-07-18 19:27:00,
2013-07-18 15:32:00,84.5,77.8,30.10,ESE,107,0.0,1.0,80,0.00,,,0.00,WUHU216DAVISVP2,2013-07-18 19:32:00,
2013-07-18 15:37:00,84.5,77.8,30.10,WSW,238,0.0,1.0,80,0.00,,,0.00,WUHU216DAVISVP2,2013-07-18 19:37:00,
2013-07-18 15:42:00,84.7,78.0,30.10,SSE,167,0.0,1.0,80,0.00,,,0.00,WUHU216DAVISVP2,2013-07-18 19:42:00,
2013-07-18 15:47:00,85.0,78.3,30.10,NNE,25,0.0,2.0,80,0.00,,,0.00,WUHU216DAVISVP2,2013-07-18 19:47:00,
2013-07-18 15:52:00,85.1,78.0,30.10,SW,235,0.0,2.0,79,0.00,,,0.00,WUHU216DAVISVP2,2013-07-18 19:52:00,
2013-07-18 15:57:00,85.7,78.6,30.10,NE,38,0.0,3.0,79,0.00,,,0.00,WUHU216DAVISVP2,2013-07-18 19:57:00,
2013-07-18 16:02:00,86.0,78.5,30.10,SSW,202,0.0,3.0,78,0.00,,,0.00,WUHU216DAVISVP2,2013-07-18 20:02:00,
2013-07-18 16:07:00,86.3,78.4,30.09,West,275,0.0,1.0,77,0.00,,,0.00,WUHU216DAVISVP2,2013-07-18 20:07:00,
2013-07-18 16:12:00,86.4,78.1,30.09,NW,324,0.0,4.0,76,0.00,,,0.00,WUHU216DAVISVP2,2013-07-18 20:12:00,
2013-07-18 16:17:00,86.3,78.0,30.09,West,268,0.0,4.0,76,0.00,,,0.00,WUHU216DAVISVP2,2013-07-18 20:17:00,
2013-07-18 16:22:00,86.0,78.1,30.09,SW,235,0.0,5.0,77,0.00,,,0.00,WUHU216DAVISVP2,2013-07-18 20:22:00,
2013-07-18 16:27:00,85.8,77.9,30.09,SSW,213,0.0,5.0,77,0.00,,,0.00,WUHU216DAVISVP2,2013-07-18 20:27:00,
2013-07-18 16:32:00,85.8,78.7,30.08,West,267,0.0,1.0,79,0.00,,,0.00,WUHU216DAVISVP2,2013-07-18 20:32:00,
2013-07-18 16:37:00,85.9,78.4,30.08,East,85,0.0,1.0,78,0.00,,,0.00,WUHU216DAVISVP2,2013-07-18 20:37:00,
2013-07-18 16:42:00,85.5,78.0,30.08,NNW,332,0.0,2.0,78,0.00,,,0.00,WUHU216DAVISVP2,2013-07-18 20:42:00,
2013-07-18 16:47:00,85.3,77.8,30.08,NE,42,0.0,2.0,78,0.00,,,0.00,WUHU216DAVISVP2,2013-07-18 20:47:00,
2013-07-18 16:52:00,85.0,77.9,30.08,SW,225,0.0,2.0,79,0.00,,,0.00,WUHU216DAVISVP2,2013-07-18 20:52:00,
2013-07-18 16:57:00,84.6,77.9,30.08,ESE,115,0.0,2.0,80,0.00,,,0.00,WUHU216DAVISVP2,2013-07-18 20:57:00,
2013-07-18 17:02:00,84.2,77.8,30.07,NE,39,0.0,2.0,81,0.00,,,0.00,WUHU216DAVISVP2,2013-07-18 21:02:00,
2013-07-18 17:07:00,84.5,78.5,30.07,NW,309,0.0,2.0,82,0.00,,,0.00,WUHU216DAVISVP2,2013-07-18 21:07:00,
2013-07-18 17:12:00,84.7,78.3,30.07,SW,229,1.0,2.0,81,0.00,,,0.00,WUHU216DAVISVP2,2013-07-18 21:12:00,
2013-07-18 17:17:00,84.9,78.2,30.07,NNE,13,0.0,2.0,80,0.00,,,0.00,WUHU216DAVISVP2,2013-07-18 21:17:00,
2013-07-18 17:22:00,85.2,78.5,30.07,North,360,0.0,3.0,80,0.00,,,0.00,WUHU216DAVISVP2,2013-07-18 21:22:00,
2013-07-18 17:27:00,85.4,78.7,30.06,North,360,0.0,3.0,80,0.00,,,0.00,WUHU216DAVISVP2,2013-07-18 21:27:00,
2013-07-18 17:32:00,85.3,77.8,30.06,South,190,0.0,4.0,78,0.00,,,0.00,WUHU216DAVISVP2,2013-07-18 21:32:00,
2013-07-18 17:37:00,85.2,77.7,30.06,WSW,238,0.0,4.0,78,0.00,,,0.00,WUHU216DAVISVP2,2013-07-18 21:37:00,
2013-07-18 17:42:00,85.4,77.9,30.06,SW,234,1.0,2.0,78,0.00,,,0.00,WUHU216DAVISVP2,2013-07-18 21:42:00,
2013-07-18 17:47:00,85.4,77.5,30.07,West,268,0.0,3.0,77,0.00,,,0.00,WUHU216DAVISVP2,2013-07-18 21:47:00,
2013-07-18 17:52:00,85.0,77.5,30.07,ESE,121,0.0,3.0,78,0.00,,,0.00,WUHU216DAVISVP2,2013-07-18 21:52:00,
2013-07-18 17:57:00,84.7,77.2,30.06,NW,319,0.0,4.0,78,0.00,,,0.00,WUHU216DAVISVP2,2013-07-18 21:57:00,
2013-07-18 18:02:00,84.4,77.3,30.06,North,5,0.0,4.0,79,0.00,,,0.00,WUHU216DAVISVP2,2013-07-18 22:02:00,
2013-07-18 18:07:00,84.3,77.2,30.06,SE,131,0.0,4.0,79,0.00,,,0.00,WUHU216DAVISVP2,2013-07-18 22:07:00,
2013-07-18 18:12:00,84.1,77.0,30.06,North,5,0.0,4.0,79,0.00,,,0.00,WUHU216DAVISVP2,2013-07-18 22:12:00,
2013-07-18 18:17:00,83.9,77.2,30.06,NNW,339,0.0,3.0,80,0.00,,,0.00,WUHU216DAVISVP2,2013-07-18 22:17:00,
2013-07-18 18:22:00,83.9,76.8,30.07,North,5,0.0,3.0,79,0.00,,,0.00,WUHU216DAVISVP2,2013-07-18 22:22:00,
2013-07-18 18:27:00,83.8,76.7,30.07,NNW,343,0.0,1.0,79,0.00,,,0.00,WUHU216DAVISVP2,2013-07-18 22:27:00,
2013-07-18 18:32:00,83.6,76.5,30.07,SW,223,0.0,3.0,79,0.00,,,0.00,WUHU216DAVISVP2,2013-07-18 22:32:00,
2013-07-18 18:37:00,83.5,76.4,30.07,West,280,0.0,3.0,79,0.00,,,0.00,WUHU216DAVISVP2,2013-07-18 22:37:00,
2013-07-18 18:42:00,83.4,76.7,30.07,SSW,196,0.0,3.0,80,0.00,,,0.00,WUHU216DAVISVP2,2013-07-18 22:42:00,
2013-07-18 18:47:00,83.3,76.6,30.07,West,262,0.0,4.0,80,0.00,,,0.00,WUHU216DAVISVP2,2013-07-18 22:47:00,
2013-07-18 18:52:00,83.2,77.2,30.07,ENE,77,0.0,4.0,82,0.00,,,0.00,WUHU216DAVISVP2,2013-07-18 22:52:00,
2013-07-18 18:57:00,83.1,77.5,30.07,NNW,335,0.0,3.0,83,0.00,,,0.00,WUHU216DAVISVP2,2013-07-18 22:57:00,
2013-07-18 19:02:00,83.0,77.4,30.06,WSW,242,0.0,5.0,83,0.00,,,0.00,WUHU216DAVISVP2,2013-07-18 23:02:00,
2013-07-18 19:07:00,82.8,77.2,30.06,South,190,0.0,5.0,83,0.00,,,0.00,WUHU216DAVISVP2,2013-07-18 23:07:00,
2013-07-18 19:12:00,82.6,77.0,30.07,South,189,0.0,4.0,83,0.00,,,0.00,WUHU216DAVISVP2,2013-07-18 23:12:00,
2013-07-18 19:17:00,82.5,76.9,30.07,SSW,204,0.0,1.0,83,0.00,,,0.00,WUHU216DAVISVP2,2013-07-18 23:17:00,
2013-07-18 19:22:00,82.3,76.7,30.07,SW,232,0.0,4.0,83,0.00,,,0.00,WUHU216DAVISVP2,2013-07-18 23:22:00,
2013-07-18 19:27:00,82.3,76.7,30.07,SW,232,0.0,4.0,83,0.00,,,0.00,WUHU216DAVISVP2,2013-07-18 23:27:00,
2013-07-18 19:32:00,82.3,76.7,30.07,SE,144,0.0,1.0,83,0.00,,,0.00,WUHU216DAVISVP2,2013-07-18 23:32:00,
2013-07-18 19:37:00,82.0,76.4,30.07,SSE,159,0.0,3.0,83,0.00,,,0.00,WUHU216DAVISVP2,2013-07-18 23:37:00,
2013-07-18 19:38:00,82.1,76.5,30.08,SSE,159,0.0,3.0,83,0.00,,,0.00,WUHU216DAVISVP2,2013-07-18 23:38:00,
2013-07-18 19:43:00,81.9,76.3,30.07,SSE,159,0.0,3.0,83,0.00,,,0.00,WUHU216DAVISVP2,2013-07-18 23:43:00,
2013-07-18 19:48:00,81.9,76.7,30.07,SSE,165,0.0,1.0,84,0.00,,,0.00,WUHU216DAVISVP2,2013-07-18 23:48:00,
2013-07-18 19:53:00,81.9,76.7,30.07,South,173,0.0,2.0,84,0.00,,,0.00,WUHU216DAVISVP2,2013-07-18 23:53:00,
2013-07-18 19:58:00,81.8,76.6,30.07,South,173,0.0,2.0,84,0.00,,,0.00,WUHU216DAVISVP2,2013-07-18 23:58:00,
2013-07-18 20:03:00,81.8,76.9,30.07,South,173,0.0,0.0,85,0.00,,,0.00,WUHU216DAVISVP2,2013-07-19 00:03:00,
2013-07-18 20:08:00,81.7,76.5,30.07,South,188,0.0,1.0,84,0.00,,,0.00,WUHU216DAVISVP2,2013-07-19 00:08:00,
2013-07-18 20:13:00,81.5,76.3,30.08,SSE,165,0.0,1.0,84,0.00,,,0.00,WUHU216DAVISVP2,2013-07-19 00:13:00,
2013-07-18 20:18:00,81.4,75.8,30.07,SSE,165,0.0,1.0,83,0.00,,,0.00,WUHU216DAVISVP2,2013-07-19 00:18:00,
2013-07-18 20:23:00,81.3,76.1,30.08,SSE,165,0.0,1.0,84,0.00,,,0.00,WUHU216DAVISVP2,2013-07-19 00:23:00,
2013-07-18 20:28:00,81.2,76.0,30.08,SSE,165,0.0,0.0,84,0.00,,,0.00,WUHU216DAVISVP2,2013-07-19 00:28:00,
2013-07-18 20:33:00,81.1,75.9,30.08,SSE,165,0.0,0.0,84,0.00,,,0.00,WUHU216DAVISVP2,2013-07-19 00:33:00,
2013-07-18 20:38:00,81.0,75.8,30.08,South,180,0.0,1.0,84,0.00,,,0.00,WUHU216DAVISVP2,2013-07-19 00:38:00,
2013-07-18 20:43:00,80.9,75.3,30.08,South,179,0.0,1.0,83,0.00,,,0.00,WUHU216DAVISVP2,2013-07-19 00:43:00,
2013-07-18 20:48:00,80.9,75.7,30.08,South,187,0.0,1.0,84,0.00,,,0.00,WUHU216DAVISVP2,2013-07-19 00:48:00,
2013-07-18 20:53:00,80.8,75.6,30.08,South,187,0.0,1.0,84,0.00,,,0.00,WUHU216DAVISVP2,2013-07-19 00:53:00,
2013-07-18 20:58:00,80.8,75.6,30.08,South,187,0.0,0.0,84,0.00,,,0.00,WUHU216DAVISVP2,2013-07-19 00:58:00,
2013-07-18 21:03:00,80.8,75.6,30.08,South,187,0.0,0.0,84,0.00,,,0.00,WUHU216DAVISVP2,2013-07-19 01:03:00,
2013-07-18 21:08:00,80.8,75.6,30.08,South,187,0.0,1.0,84,0.00,,,0.00,WUHU216DAVISVP2,2013-07-19 01:08:00,
2013-07-18 21:13:00,80.7,75.8,30.08,South,187,0.0,1.0,85,0.00,,,0.00,WUHU216DAVISVP2,2013-07-19 01:13:00,
2013-07-18 21:18:00,80.7,75.8,30.08,South,187,0.0,1.0,85,0.00,,,0.00,WUHU216DAVISVP2,2013-07-19 01:18:00,
2013-07-18 21:23:00,80.6,75.7,30.08,South,187,0.0,1.0,85,0.00,,,0.00,WUHU216DAVISVP2,2013-07-19 01:23:00,
2013-07-18 21:28:00,80.6,75.4,30.08,South,187,0.0,0.0,84,0.00,,,0.00,WUHU216DAVISVP2,2013-07-19 01:28:00,
2013-07-18 21:33:00,80.6,75.4,30.08,South,187,0.0,0.0,84,0.00,,,0.00,WUHU216DAVISVP2,2013-07-19 01:33:00,
2013-07-18 21:38:00,80.6,75.4,30.08,South,187,0.0,1.0,84,0.00,,,0.00,WUHU216DAVISVP2,2013-07-19 01:38:00,
2013-07-18 21:43:00,80.7,75.5,30.08,South,187,0.0,1.0,84,0.00,,,0.00,WUHU216DAVISVP2,2013-07-19 01:43:00,
2013-07-18 21:48:00,80.7,75.5,30.08,South,187,0.0,0.0,84,0.00,,,0.00,WUHU216DAVISVP2,2013-07-19 01:48:00,
2013-07-18 21:53:00,80.6,75.4,30.08,South,187,0.0,0.0,84,0.00,,,0.00,WUHU216DAVISVP2,2013-07-19 01:53:00,
2013-07-18 21:58:00,80.6,75.4,30.08,South,187,0.0,0.0,84,0.00,,,0.00,WUHU216DAVISVP2,2013-07-19 01:58:00,
2013-07-18 22:03:00,80.5,75.3,30.08,South,187,0.0,0.0,84,0.00,,,0.00,WUHU216DAVISVP2,2013-07-19 02:03:00,
2013-07-18 22:08:00,80.5,75.3,30.09,South,187,0.0,1.0,84,0.00,,,0.00,WUHU216DAVISVP2,2013-07-19 02:08:00,
2013-07-18 22:13:00,80.5,75.6,30.09,South,187,0.0,1.0,85,0.00,,,0.00,WUHU216DAVISVP2,2013-07-19 02:13:00,
2013-07-18 22:18:00,80.5,75.6,30.09,South,187,0.0,1.0,85,0.00,,,0.00,WUHU216DAVISVP2,2013-07-19 02:18:00,
2013-07-18 22:23:00,80.5,75.6,30.09,South,187,0.0,0.0,85,0.00,,,0.00,WUHU216DAVISVP2,2013-07-19 02:23:00,
2013-07-18 22:28:00,80.4,75.5,30.09,South,187,0.0,0.0,85,0.00,,,0.00,WUHU216DAVISVP2,2013-07-19 02:28:00,
2013-07-18 22:33:00,80.3,75.4,30.09,South,187,0.0,0.0,85,0.00,,,0.00,WUHU216DAVISVP2,2013-07-19 02:33:00,
2013-07-18 22:38:00,80.3,75.4,30.09,South,187,0.0,0.0,85,0.00,,,0.00,WUHU216DAVISVP2,2013-07-19 02:38:00,
2013-07-18 22:43:00,80.2,75.3,30.09,South,187,0.0,0.0,85,0.00,,,0.00,WUHU216DAVISVP2,2013-07-19 02:43:00,
2013-07-18 22:48:00,80.1,75.2,30.09,South,187,0.0,0.0,85,0.00,,,0.00,WUHU216DAVISVP2,2013-07-19 02:48:00,
2013-07-18 22:53:00,80.0,75.1,30.09,South,187,0.0,0.0,85,0.00,,,0.00,WUHU216DAVISVP2,2013-07-19 02:53:00,
2013-07-18 22:58:00,79.9,75.4,30.09,South,187,0.0,0.0,86,0.00,,,0.00,WUHU216DAVISVP2,2013-07-19 02:58:00,
2013-07-18 23:03:00,79.8,75.3,30.09,South,187,0.0,0.0,86,0.00,,,0.00,WUHU216DAVISVP2,2013-07-19 03:03:00,
2013-07-18 23:08:00,79.8,75.3,30.09,South,187,0.0,0.0,86,0.00,,,0.00,WUHU216DAVISVP2,2013-07-19 03:08:00,
2013-07-18 23:13:00,79.7,75.2,30.09,South,187,0.0,0.0,86,0.00,,,0.00,WUHU216DAVISVP2,2013-07-19 03:13:00,
2013-07-18 23:18:00,79.6,75.4,30.09,South,187,0.0,0.0,87,0.00,,,0.00,WUHU216DAVISVP2,2013-07-19 03:18:00,
2013-07-18 23:23:00,79.5,75.3,30.09,South,187,0.0,0.0,87,0.00,,,0.00,WUHU216DAVISVP2,2013-07-19 03:23:00,
2013-07-18 23:28:00,79.4,75.5,30.09,South,187,0.0,0.0,88,0.00,,,0.00,WUHU216DAVISVP2,2013-07-19 03:28:00,
2013-07-18 23:33:00,79.3,75.5,30.09,South,187,0.0,0.0,88,0.00,,,0.00,WUHU216DAVISVP2,2013-07-19 03:33:00,
2013-07-18 23:38:00,79.2,75.7,30.09,South,187,0.0,0.0,89,0.00,,,0.00,WUHU216DAVISVP2,2013-07-19 03:38:00,
2013-07-18 23:43:00,79.0,75.5,30.09,South,187,0.0,0.0,89,0.00,,,0.00,WUHU216DAVISVP2,2013-07-19 03:43:00,
2013-07-18 23:48:00,78.9,75.4,30.09,South,187,0.0,0.0,89,0.00,,,0.00,WUHU216DAVISVP2,2013-07-19 03:48:00,
2013-07-18 23:53:00,78.8,75.3,30.09,South,187,0.0,0.0,89,0.00,,,0.00,WUHU216DAVISVP2,2013-07-19 03:53:00,
2013-07-18 23:58:00,78.7,75.2,30.09,South,187,0.0,0.0,89,0.00,,,0.00,WUHU216DAVISVP2,2013-07-19 03:58:00,